Time;durP1;ratioP1;P1;durP2;ratioP2;P2;SDS_P1;SDS_P2;PMS_P1;PMS_P2;Temp;Humidity;BMP_temperature;BMP_pressure;BME280_temperature;BME280_humidity;BME280_pressure;Samples;Min_cycle;Max_cycle;Signal;HPM_P1;HPM_P2
2021/08/26 00:07:43;;;;;;;22.05;19.25;;;;;;;21.54;73.26;99764.19;5108054;28;20831;-22
2021/08/26 00:10:12;;;;;;;20.45;18.35;;;;;;;21.77;72.39;99789.53;5107636;28;20028;-22
2021/08/26 00:12:38;;;;;;;22.20;19.88;;;;;;;22.05;71.84;99797.69;5090046;28;20476;-23
2021/08/26 00:15:05;;;;;;;22.17;19.80;;;;;;;21.89;71.46;99770.03;5107986;28;20035;-22
2021/08/26 00:17:31;;;;;;;21.60;19.40;;;;;;;21.98;70.37;99776.34;5108157;28;20064;-22
2021/08/26 00:19:56;;;;;;;26.00;19.95;;;;;;;22.02;70.76;99774.63;5107616;28;20039;-22
2021/08/26 00:22:22;;;;;;;21.15;18.48;;;;;;;21.85;70.79;99771.75;5107154;28;20039;-22
2021/08/26 00:24:47;;;;;;;20.15;17.92;;;;;;;21.69;71.46;99770.41;5107650;28;20027;-22
2021/08/26 00:27:13;;;;;;;21.08;18.70;;;;;;;21.65;71.51;99762.06;5107462;28;20032;-22
2021/08/26 00:29:38;;;;;;;21.80;18.27;;;;;;;21.47;72.29;99761.03;5107579;28;20020;-22
2021/08/26 00:32:05;;;;;;;20.67;18.48;;;;;;;21.42;72.12;99759.22;5107264;28;20487;-22
2021/08/26 00:34:30;;;;;;;21.75;19.40;;;;;;;21.71;71.94;99765.50;5108079;28;20081;-22
2021/08/26 00:36:56;;;;;;;22.73;20.17;;;;;;;21.63;71.86;99762.38;5107516;28;20863;-22
2021/08/26 00:39:21;;;;;;;21.90;18.60;;;;;;;21.79;71.47;99753.94;5107487;28;20032;-22
2021/08/26 00:41:47;;;;;;;21.20;18.92;;;;;;;22.04;69.89;99739.03;5107149;28;20499;-22
2021/08/26 00:44:12;;;;;;;21.35;19.15;;;;;;;21.63;71.71;99748.78;5101681;28;20077;-22
2021/08/26 00:46:38;;;;;;;22.35;19.75;;;;;;;21.35;73.41;99763.38;5097567;28;20028;-22
2021/08/26 00:49:16;;;;;;;22.92;20.52;;;;;;;21.52;72.40;99765.59;5077637;28;20077;-22
2021/08/26 00:51:43;;;;;;;24.13;20.08;;;;;;;21.54;72.61;99750.59;5095491;28;20146;-22
2021/08/26 00:54:08;;;;;;;23.08;20.48;;;;;;;21.55;72.85;99760.34;5086212;28;20020;-22
2021/08/26 00:56:34;;;;;;;23.17;20.67;;;;;;;21.27;74.11;99752.13;5107416;28;20043;-21
2021/08/26 00:59:01;;;;;;;24.42;20.67;;;;;;;21.01;75.46;99759.09;5107570;28;20043;-22
2021/08/26 01:01:29;;;;;;;22.58;20.20;;;;;;;20.94;76.19;99751.31;5090065;28;20793;-22
2021/08/26 01:04:24;;;;;;;24.33;21.73;;;;;;;21.16;74.72;99758.03;5089441;28;20469;-21
2021/08/26 01:06:56;;;;;;;24.48;21.13;;;;;;;20.80;77.10;99764.84;5086805;28;20043;-21
2021/08/26 01:09:21;;;;;;;23.83;21.33;;;;;;;21.01;76.19;99759.09;5089065;28;20035;-21
2021/08/26 01:11:46;;;;;;;26.80;21.35;;;;;;;21.46;74.14;99757.53;5107499;28;20084;-21
2021/08/26 01:14:12;;;;;;;24.77;21.92;;;;;;;21.42;73.87;99742.13;5072081;28;20027;-21
2021/08/26 01:16:39;;;;;;;24.55;22.02;;;;;;;21.37;74.05;99747.63;5073444;28;20044;-22
2021/08/26 01:19:04;;;;;;;24.25;21.48;;;;;;;21.24;74.22;99731.03;5111252;28;20031;-21
2021/08/26 01:21:30;;;;;;;26.50;19.83;;;;;;;21.09;75.73;99739.44;5111162;28;20035;-22
2021/08/26 01:23:58;;;;;;;24.13;21.45;;;;;;;20.80;75.89;99712.50;5110868;28;20464;-21
2021/08/26 01:26:24;;;;;;;;;;;;;;;21.05;75.37;99738.41;5111219;28;20032;-22
2021/08/26 01:28:51;;;;;;;25.17;21.65;;;;;;;21.21;74.28;99726.22;5110939;28;19980;-21
2021/08/26 01:31:17;;;;;;;28.10;23.33;;;;;;;21.34;74.72;99723.81;5092577;28;20494;-22
2021/08/26 01:33:45;;;;;;;25.33;22.38;;;;;;;21.63;72.97;99710.81;5110892;28;20459;-22
2021/08/26 01:36:11;;;;;;;25.95;23.17;;;;;;;21.96;71.86;99724.25;5076042;28;20102;-22
2021/08/26 01:38:37;;;;;;;26.75;23.83;;;;;;;21.89;71.67;99720.38;5110838;28;20092;-22
2021/08/26 01:41:02;;;;;;;26.08;22.58;;;;;;;21.56;72.95;99729.41;5111131;28;20024;-22
2021/08/26 01:43:28;;;;;;;24.48;21.73;;;;;;;21.55;72.39;99714.22;5111116;28;20407;-22
2021/08/26 01:45:54;;;;;;;24.35;21.65;;;;;;;21.45;72.94;99717.94;5110806;28;20827;-22
2021/08/26 01:48:20;;;;;;;26.70;22.42;;;;;;;21.30;72.21;99717.38;5110504;28;20043;-22
2021/08/26 01:50:46;;;;;;;27.17;22.42;;;;;;;21.01;73.24;99729.28;5110880;28;20487;-22
2021/08/26 01:53:12;;;;;;;25.70;23.00;;;;;;;21.18;72.63;99742.25;5110412;28;20031;-22
2021/08/26 01:55:38;;;;;;;27.65;24.05;;;;;;;20.59;74.76;99725.56;5110396;28;20411;-22
2021/08/26 01:58:03;;;;;;;28.00;25.10;;;;;;;20.27;76.08;99730.59;5109961;28;20035;-22
2021/08/26 02:00:29;;;;;;;28.98;24.80;;;;;;;20.17;76.76;99733.44;5110155;28;20059;-22
2021/08/26 02:02:54;;;;;;;32.63;27.63;;;;;;;20.00;77.21;99735.81;5110193;28;20067;-22
2021/08/26 02:05:20;;;;;;;31.40;28.10;;;;;;;20.09;77.28;99719.75;5110292;28;20031;-22
2021/08/26 02:07:51;;;;;;;30.58;27.27;;;;;;;20.48;75.71;99709.44;5110508;28;20820;-22
2021/08/26 02:10:16;;;;;;;33.78;27.42;;;;;;;20.59;75.06;99728.28;5109970;28;20031;-22
2021/08/26 02:12:42;;;;;;;30.63;27.33;;;;;;;20.91;73.90;99719.38;5110010;28;20035;-22
2021/08/26 02:15:08;;;;;;;33.38;27.75;;;;;;;20.66;73.79;99705.16;5110419;28;20097;-21
2021/08/26 02:17:34;;;;;;;29.98;26.65;;;;;;;20.26;75.60;99701.09;5110621;28;20591;-22
2021/08/26 02:19:59;;;;;;;34.00;28.00;;;;;;;20.56;74.79;99704.47;5109943;28;20024;-22
2021/08/26 02:22:25;;;;;;;30.95;26.88;;;;;;;20.57;74.53;99706.06;5109918;28;20059;-22
2021/08/26 02:24:50;;;;;;;31.08;27.70;;;;;;;20.46;74.95;99705.44;5109860;28;20039;-22
2021/08/26 02:27:16;;;;;;;31.70;26.95;;;;;;;20.24;76.09;99716.84;5109566;28;20102;-22
2021/08/26 02:29:41;;;;;;;30.00;26.73;;;;;;;20.03;76.77;99700.06;5108742;28;20031;-22
2021/08/26 02:32:07;;;;;;;30.48;27.27;;;;;;;20.10;76.95;99713.22;5109565;28;20031;-22
2021/08/26 02:34:32;;;;;;;33.00;27.85;;;;;;;20.02;77.09;99706.56;5110069;28;20034;-22
2021/08/26 02:36:58;;;;;;;30.48;27.17;;;;;;;20.23;75.72;99696.28;5091447;28;20035;-22
2021/08/26 02:39:23;;;;;;;33.13;28.40;;;;;;;20.53;75.00;99691.50;5109958;28;20110;-22
2021/08/26 02:41:49;;;;;;;30.40;27.13;;;;;;;20.27;75.80;99708.16;5110038;28;20767;-22
2021/08/26 02:44:14;;;;;;;31.98;28.02;;;;;;;20.11;76.89;99714.84;5091087;28;20028;-22
2021/08/26 02:46:40;;;;;;;32.47;28.23;;;;;;;20.25;75.22;99685.97;5109359;28;20035;-22
2021/08/26 02:49:05;;;;;;;32.03;27.83;;;;;;;20.24;76.09;99697.88;5109960;28;20475;-22
2021/08/26 02:51:30;;;;;;;30.85;26.45;;;;;;;20.28;76.03;99709.72;5109568;28;20035;-22
2021/08/26 02:53:56;;;;;;;31.65;25.95;;;;;;;19.98;77.14;99703.66;5109642;28;20500;-22
2021/08/26 02:56:21;;;;;;;31.52;26.55;;;;;;;20.17;76.51;99706.38;5109156;28;20065;-22
2021/08/26 02:58:47;;;;;;;33.33;26.88;;;;;;;20.44;74.14;99686.75;5090851;28;20035;-22
2021/08/26 03:01:12;;;;;;;29.17;26.05;;;;;;;20.42;74.39;99699.00;5109160;28;20028;-22
2021/08/26 03:03:38;;;;;;;32.47;28.13;;;;;;;20.52;74.29;99703.44;5108978;28;20027;-21
2021/08/26 03:06:03;;;;;;;30.20;25.88;;;;;;;20.52;73.70;99722.41;5109031;28;20088;-22
2021/08/26 03:08:31;;;;;;;30.15;26.52;;;;;;;20.76;72.64;99715.03;5109272;28;20854;-21
2021/08/26 03:10:56;;;;;;;32.00;27.43;;;;;;;20.66;73.05;99704.34;5109391;28;20084;-22
2021/08/26 03:13:22;;;;;;;31.20;28.00;;;;;;;20.55;73.16;99710.97;5090730;28;20023;-22
2021/08/26 03:15:47;;;;;;;38.05;27.67;;;;;;;20.64;72.92;99717.38;5109055;28;20055;-22
2021/08/26 03:18:12;;;;;;;33.63;25.50;;;;;;;20.52;73.00;99703.44;5108752;28;20038;-21
2021/08/26 03:20:38;;;;;;;29.38;25.42;;;;;;;19.93;75.57;99700.19;5109107;28;20392;-21
2021/08/26 03:23:04;;;;;;;28.30;25.00;;;;;;;19.98;75.29;99716.34;5108835;28;20028;-22
2021/08/26 03:25:30;;;;;;;29.95;26.45;;;;;;;20.04;74.67;99716.03;5108994;28;20039;-22
2021/08/26 03:27:55;;;;;;;30.55;26.48;;;;;;;19.96;75.28;99735.59;5108839;28;20034;-22
2021/08/26 03:30:21;;;;;;;30.13;26.85;;;;;;;19.91;75.41;99724.84;5108507;28;20096;-21
2021/08/26 03:32:46;;;;;;;28.83;25.33;;;;;;;19.84;75.57;99721.69;5090499;28;20024;-22
2021/08/26 03:35:12;;;;;;;27.60;24.63;;;;;;;19.90;74.65;99715.13;5108597;28;20032;-22
2021/08/26 03:37:37;;;;;;;29.05;24.02;;;;;;;19.90;74.25;99715.13;5108444;28;20396;-22
2021/08/26 03:40:03;;;;;;;27.63;23.27;;;;;;;19.89;73.80;99712.69;5107157;28;20028;-22
2021/08/26 03:42:28;;;;;;;29.80;23.77;;;;;;;20.06;74.10;99724.66;5108099;28;20491;-22
2021/08/26 03:44:54;;;;;;;30.35;25.02;;;;;;;20.46;73.00;99710.84;5108737;28;20403;-22
2021/08/26 03:47:19;;;;;;;27.80;23.95;;;;;;;20.21;73.76;99720.13;5108419;28;20035;-22
2021/08/26 03:49:45;;;;;;;30.45;25.15;;;;;;;20.42;72.81;99716.03;5108394;28;20471;-22
2021/08/26 03:52:10;;;;;;;26.65;23.77;;;;;;;20.14;73.64;99708.84;5108146;28;20039;-22
2021/08/26 03:54:36;;;;;;;25.83;22.80;;;;;;;20.10;73.95;99718.66;5108534;28;20020;-22
2021/08/26 03:57:02;;;;;;;26.98;23.17;;;;;;;20.05;74.34;99728.44;5107944;28;20040;-22
2021/08/26 03:59:28;;;;;;;29.70;23.98;;;;;;;19.73;75.94;99720.19;5107719;28;20052;-22
2021/08/26 04:01:53;;;;;;;28.02;23.90;;;;;;;19.96;74.05;99686.91;5108269;28;20071;-22
2021/08/26 04:04:19;;;;;;;28.05;23.38;;;;;;;19.93;75.21;99714.53;5108109;28;20043;-22
2021/08/26 04:06:44;;;;;;;29.30;25.00;;;;;;;19.81;76.01;99711.44;5107967;28;20081;-22
2021/08/26 04:09:09;;;;;;;27.42;24.30;;;;;;;20.00;75.34;99730.41;5108023;28;20039;-22
2021/08/26 04:11:35;;;;;;;28.90;25.75;;;;;;;20.27;73.96;99729.81;5107880;28;20413;-22
2021/08/26 04:14:00;;;;;;;30.40;25.85;;;;;;;20.42;73.45;99729.56;5108261;28;20032;-22
2021/08/26 04:16:26;;;;;;;32.13;26.98;;;;;;;20.66;72.79;99726.81;5107845;28;20510;-22
2021/08/26 04:18:51;;;;;;;31.05;26.77;;;;;;;20.16;74.56;99722.91;5107811;28;20040;-22
2021/08/26 04:21:17;;;;;;;31.27;26.00;;;;;;;20.13;74.95;99728.91;5107967;28;20043;-22
2021/08/26 04:23:42;;;;;;;29.80;25.20;;;;;;;20.15;75.46;99749.16;5107650;28;20435;-22
2021/08/26 04:26:08;;;;;;;29.73;24.65;;;;;;;20.18;75.21;99753.19;5107488;28;20092;-22
2021/08/26 04:28:33;;;;;;;34.17;28.73;;;;;;;20.10;75.55;99724.84;5107687;28;20043;-22
2021/08/26 04:30:59;;;;;;;37.65;32.92;;;;;;;20.35;74.61;99745.41;5107852;28;20453;-21
2021/08/26 04:33:24;;;;;;;33.05;29.50;;;;;;;20.31;74.74;99752.50;5107554;28;20032;-21
2021/08/26 04:35:50;;;;;;;37.85;30.65;;;;;;;20.33;74.55;99741.34;5107829;28;20030;-22
2021/08/26 04:38:15;;;;;;;35.88;31.58;;;;;;;20.42;74.62;99764.78;5107866;28;20451;-22
2021/08/26 04:40:40;;;;;;;36.10;31.27;;;;;;;20.26;75.41;99749.84;5107557;28;20075;-22
2021/08/26 04:43:06;;;;;;;36.38;32.47;;;;;;;20.23;75.74;99750.44;5107422;28;20034;-22
2021/08/26 04:45:31;;;;;;;37.08;31.77;;;;;;;20.46;75.18;99749.56;5107413;28;20035;-22
2021/08/26 04:47:57;;;;;;;37.17;33.13;;;;;;;20.64;75.22;99755.31;5107947;28;20035;-22
2021/08/26 04:50:22;;;;;;;36.13;31.25;;;;;;;20.47;76.17;99751.19;5107790;28;20399;-21
2021/08/26 04:52:48;;;;;;;35.17;29.83;;;;;;;20.00;78.15;99736.63;5110863;28;20036;-22
2021/08/26 04:55:14;;;;;;;33.38;29.73;;;;;;;20.10;78.74;99732.19;5093496;28;20031;-25
2021/08/26 04:57:39;;;;;;;46.28;38.97;;;;;;;19.89;79.38;99726.22;5111610;28;20088;-22
2021/08/26 05:00:05;;;;;;;58.60;51.65;;;;;;;19.94;79.27;99699.91;5111216;28;20097;-22
2021/08/26 05:02:30;;;;;;;56.13;49.30;;;;;;;20.25;78.65;99694.88;5111598;28;20027;-22
2021/08/26 05:04:56;;;;;;;34.22;30.50;;;;;;;20.29;78.00;99697.81;5111443;28;20028;-22
2021/08/26 05:07:21;;;;;;;32.53;27.23;;;;;;;20.07;78.99;99710.00;5111569;28;20060;-22
2021/08/26 05:09:47;;;;;;;35.58;31.38;;;;;;;20.55;77.21;99702.84;5111501;28;20044;-22
2021/08/26 05:12:13;;;;;;;35.60;31.77;;;;;;;20.61;77.19;99702.50;5111406;28;20558;-22
2021/08/26 05:14:38;;;;;;;35.95;29.40;;;;;;;20.60;76.98;99705.53;5111331;28;20028;-22
2021/08/26 05:17:04;;;;;;;36.80;28.42;;;;;;;20.35;78.15;99721.03;5111317;28;20031;-22
2021/08/26 05:19:29;;;;;;;35.10;30.70;;;;;;;20.33;78.25;99728.63;5111396;28;20035;-22
2021/08/26 05:21:55;;;;;;;35.58;31.00;;;;;;;20.54;78.79;99733.75;5111147;28;20027;-22
2021/08/26 05:24:20;;;;;;;33.67;29.73;;;;;;;20.57;77.34;99719.63;5110985;28;20051;-22
2021/08/26 05:26:46;;;;;;;33.92;29.40;;;;;;;20.71;76.98;99731.34;5111452;28;20475;-22
2021/08/26 05:29:11;;;;;;;34.85;29.10;;;;;;;20.97;76.68;99730.97;5111101;28;20035;-22
2021/08/26 05:31:37;;;;;;;34.10;28.63;;;;;;;21.02;75.50;99747.13;5110972;28;20032;-22
2021/08/26 05:34:02;;;;;;;33.13;28.52;;;;;;;20.90;76.23;99725.09;5110934;28;20027;-22
2021/08/26 05:36:28;;;;;;;34.03;27.63;;;;;;;20.90;75.75;99725.09;5110868;28;20035;-22
2021/08/26 05:38:53;;;;;;;31.70;28.27;;;;;;;21.06;75.26;99707.47;5111340;28;20038;-22
2021/08/26 05:41:19;;;;;;;33.15;28.35;;;;;;;21.21;75.52;99704.53;5110796;28;20032;-22
2021/08/26 05:43:44;;;;;;;28.70;25.67;;;;;;;21.42;74.11;99715.00;5110677;28;20088;-22
2021/08/26 05:46:10;;;;;;;30.73;26.50;;;;;;;21.46;73.96;99732.31;5110735;28;20812;-22
2021/08/26 05:48:36;;;;;;;30.30;25.40;;;;;;;21.23;73.53;99724.00;5110782;28;20039;-22
2021/08/26 05:51:01;;;;;;;30.15;26.77;;;;;;;21.57;73.00;99717.44;5111152;28;20453;-21
2021/08/26 05:53:26;;;;;;;30.58;26.13;;;;;;;21.72;72.36;99718.25;5110467;28;20032;-22
2021/08/26 05:55:52;;;;;;;29.20;26.08;;;;;;;21.85;72.52;99717.44;5110463;28;20043;-22
2021/08/26 05:58:18;;;;;;;29.05;25.25;;;;;;;21.66;72.81;99725.69;5110228;28;20148;-22
2021/08/26 06:00:43;;;;;;;29.88;25.27;;;;;;;21.60;72.65;99735.84;5110088;28;20503;-22
2021/08/26 06:03:09;;;;;;;29.33;24.80;;;;;;;21.67;73.12;99730.00;5110299;28;20024;-22
2021/08/26 06:05:34;;;;;;;29.13;25.00;;;;;;;21.83;71.42;99725.09;5110689;28;20035;-21
2021/08/26 06:08:00;;;;;;;28.55;24.83;;;;;;;21.70;72.22;99731.31;5110314;28;20495;-21
2021/08/26 06:10:25;;;;;;;29.23;24.65;;;;;;;21.46;72.32;99726.88;5109871;28;20080;-22
2021/08/26 06:12:51;;;;;;;28.35;25.25;;;;;;;21.45;73.40;99703.56;5110218;28;20526;-22
2021/08/26 06:15:16;;;;;;;30.17;25.55;;;;;;;21.85;72.83;99714.72;5110528;28;20061;-22
2021/08/26 06:17:41;;;;;;;29.63;24.50;;;;;;;21.99;70.57;99723.66;5109755;28;20410;-22
2021/08/26 06:20:09;;;;;;;27.35;24.30;;;;;;;21.76;71.62;99730.09;5109985;28;20024;-22
2021/08/26 06:22:34;;;;;;;31.60;26.40;;;;;;;21.89;72.87;99723.88;5110117;28;20030;-22
2021/08/26 06:25:00;;;;;;;29.95;25.35;;;;;;;22.15;72.67;99723.34;5109990;28;20031;-21
2021/08/26 06:27:25;;;;;;;28.02;22.63;;;;;;;22.45;70.17;99720.00;5110035;28;20047;-22
2021/08/26 06:29:51;;;;;;;26.63;22.92;;;;;;;22.57;70.08;99721.38;5110216;28;20023;-22
2021/08/26 06:32:17;;;;;;;27.65;22.73;;;;;;;22.61;68.66;99725.06;5109644;28;20034;-22
2021/08/26 06:34:44;;;;;;;23.60;21.10;;;;;;;22.44;68.31;99721.09;5109824;28;20110;-21
2021/08/26 06:37:09;;;;;;;27.38;22.17;;;;;;;22.72;68.34;99718.28;5109781;28;20089;-22
2021/08/26 06:39:34;;;;;;;24.40;21.52;;;;;;;22.84;66.78;99715.81;5109589;28;20024;-22
2021/08/26 06:42:00;;;;;;;25.05;21.75;;;;;;;22.74;67.41;99715.25;5091431;28;20042;-22
2021/08/26 06:44:25;;;;;;;24.85;21.70;;;;;;;23.00;66.89;99715.44;5109663;28;20577;-22
2021/08/26 06:46:51;;;;;;;25.40;22.58;;;;;;;23.32;66.81;99714.38;5109585;28;20028;-22
2021/08/26 06:49:16;;;;;;;23.35;20.30;;;;;;;22.95;66.74;99710.13;5109552;28;20024;-22
2021/08/26 06:51:42;;;;;;;23.85;21.27;;;;;;;23.02;65.97;99724.91;5109779;28;20483;-22
2021/08/26 06:54:07;;;;;;;25.75;20.90;;;;;;;22.67;66.67;99680.34;5109134;28;20031;-22
2021/08/26 06:56:33;;;;;;;24.15;21.33;;;;;;;22.97;67.40;99688.88;5109527;28;20469;-22
2021/08/26 06:58:58;;;;;;;23.40;20.88;;;;;;;23.19;64.92;99710.63;5109411;28;20058;-22
2021/08/26 07:01:24;;;;;;;25.48;22.10;;;;;;;23.03;65.95;99709.41;5109393;28;20411;-21
2021/08/26 07:03:50;;;;;;;25.65;21.85;;;;;;;23.19;65.74;99710.63;5109375;28;20400;-22
2021/08/26 07:06:16;;;;;;;23.45;21.00;;;;;;;23.24;65.09;99702.31;5108672;28;20412;-22
2021/08/26 07:08:42;;;;;;;23.33;20.60;;;;;;;23.20;64.81;99698.63;5109091;28;20027;-22
2021/08/26 07:11:07;;;;;;;22.50;20.10;;;;;;;23.47;64.37;99691.38;5109040;28;20419;-22
2021/08/26 07:13:33;;;;;;;24.02;20.23;;;;;;;23.42;64.28;99705.16;5109050;28;20042;-21
2021/08/26 07:15:58;;;;;;;26.15;20.83;;;;;;;23.34;63.99;99717.59;5108577;28;20026;-22
2021/08/26 07:18:24;;;;;;;24.55;20.55;;;;;;;23.58;63.92;99716.38;5109264;28;20035;-21
2021/08/26 07:20:50;;;;;;;24.60;20.42;;;;;;;23.41;64.76;99706.25;5109019;28;20031;-22
2021/08/26 07:23:16;;;;;;;26.98;21.52;;;;;;;23.29;64.46;99714.19;5108773;28;20031;-22
2021/08/26 07:25:42;;;;;;;22.45;19.50;;;;;;;23.52;64.02;99726.63;5108824;28;20399;-21
2021/08/26 07:28:08;;;;;;;24.08;20.60;;;;;;;23.70;63.38;99727.50;5108378;28;20065;-21
2021/08/26 07:30:33;;;;;;;23.85;21.20;;;;;;;23.60;64.17;99736.75;5108546;28;20034;-22
2021/08/26 07:32:59;;;;;;;24.02;20.52;;;;;;;23.45;64.02;99739.88;5108620;28;20028;-22
2021/08/26 07:35:24;;;;;;;23.70;20.38;;;;;;;23.55;63.87;99733.38;5108714;28;20724;-22
2021/08/26 07:37:50;;;;;;;22.35;19.73;;;;;;;23.74;62.34;99730.38;5108700;28;20028;-22
2021/08/26 07:40:15;;;;;;;22.95;20.23;;;;;;;23.73;62.00;99724.16;5108345;28;20039;-22
2021/08/26 07:42:41;;;;;;;23.10;19.92;;;;;;;23.79;62.01;99706.56;5108133;28;20027;-22
2021/08/26 07:45:07;;;;;;;26.20;20.65;;;;;;;23.99;61.91;99724.25;5108611;28;20028;-21
2021/08/26 07:47:32;;;;;;;21.13;18.50;;;;;;;24.11;60.20;99718.19;5090120;28;20042;-22
2021/08/26 07:49:58;;;;;;;22.30;18.95;;;;;;;24.19;59.80;99733.75;5108883;28;20028;-22
2021/08/26 07:52:24;;;;;;;20.88;18.10;;;;;;;24.38;59.44;99732.66;5107791;28;20129;-22
2021/08/26 07:54:49;;;;;;;22.55;18.10;;;;;;;24.63;58.72;99750.16;5108216;28;20020;-22
2021/08/26 07:57:15;;;;;;;22.40;19.35;;;;;;;24.43;59.48;99733.28;5108214;28;20484;-22
2021/08/26 07:59:40;;;;;;;23.63;20.80;;;;;;;24.41;59.85;99732.81;5108571;28;20063;-21
2021/08/26 08:02:07;;;;;;;27.17;19.60;;;;;;;24.27;60.18;99715.81;5107871;28;20522;-22
2021/08/26 08:04:32;;;;;;;23.65;19.83;;;;;;;24.71;60.75;99724.03;5107931;28;20071;-22
2021/08/26 08:06:58;;;;;;;26.50;21.35;;;;;;;24.92;59.08;99724.97;5108143;28;20631;-22
2021/08/26 08:09:23;;;;;;;23.75;21.20;;;;;;;24.80;57.91;99706.53;5107939;28;20039;-22
2021/08/26 08:11:49;;;;;;;22.67;20.15;;;;;;;24.82;58.71;99712.44;5107858;28;20057;-22
2021/08/26 08:14:14;;;;;;;25.83;20.58;;;;;;;25.14;57.70;99690.44;5107791;28;20028;-21
2021/08/26 08:16:40;;;;;;;25.08;20.63;;;;;;;25.43;56.44;99662.41;5108360;28;20133;-22
2021/08/26 08:19:05;;;;;;;22.98;20.08;;;;;;;25.45;56.61;99671.06;5107827;28;20035;-22
2021/08/26 08:21:31;;;;;;;26.17;20.27;;;;;;;25.48;56.43;99677.78;5107789;28;20089;-22
2021/08/26 08:23:56;;;;;;;22.95;19.95;;;;;;;26.06;54.97;99679.75;5107810;28;20463;-22
2021/08/26 08:26:22;;;;;;;23.58;20.27;;;;;;;25.89;54.52;99670.81;5107408;28;20042;-22
2021/08/26 08:28:48;;;;;;;22.13;19.70;;;;;;;26.26;55.44;99661.75;5107727;28;20076;-22
2021/08/26 08:31:13;;;;;;;22.35;19.45;;;;;;;26.65;53.68;99650.66;5107678;28;20031;-22
2021/08/26 08:33:39;;;;;;;24.05;19.33;;;;;;;26.74;51.48;99676.00;5107846;28;20403;-22
2021/08/26 08:36:04;;;;;;;22.75;19.42;;;;;;;26.85;53.50;99676.38;5107467;28;20038;-22
2021/08/26 08:38:30;;;;;;;24.10;19.98;;;;;;;26.54;52.58;99665.84;5107498;28;20479;-22
2021/08/26 08:40:56;;;;;;;24.58;19.35;;;;;;;26.42;53.77;99670.16;5107409;28;20562;-22
2021/08/26 08:43:21;;;;;;;21.75;18.20;;;;;;;26.74;52.56;99648.63;5089462;28;20111;-22
2021/08/26 08:45:47;;;;;;;21.42;18.58;;;;;;;27.09;51.36;99664.66;5107479;28;20031;-22
2021/08/26 08:48:12;;;;;;;22.95;18.73;;;;;;;27.44;51.01;99669.75;5107327;28;20119;-22
2021/08/26 08:50:39;;;;;;;22.40;18.55;;;;;;;27.32;51.73;99667.00;5107526;28;20049;-22
2021/08/26 08:53:05;;;;;;;20.75;18.23;;;;;;;27.11;52.42;99661.59;5107704;28;20070;-22
2021/08/26 08:55:30;;;;;;;20.52;17.73;;;;;;;27.21;49.24;99672.91;5089454;28;20881;-22
2021/08/26 08:57:56;;;;;;;20.00;17.83;;;;;;;27.16;51.43;99667.66;5072444;28;20581;-22
2021/08/26 09:00:23;;;;;;;20.73;17.15;;;;;;;27.30;48.95;99661.06;5106975;28;20142;-22
2021/08/26 09:02:49;;;;;;;20.17;18.08;;;;;;;27.59;51.22;99674.56;5107289;28;20031;-22
2021/08/26 09:05:14;;;;;;;19.15;17.00;;;;;;;28.04;48.96;99664.59;5107215;28;20081;-22
2021/08/26 09:07:40;;;;;;;20.13;17.88;;;;;;;28.04;47.72;99668.13;5107296;28;20031;-22
2021/08/26 09:10:06;;;;;;;20.67;17.27;;;;;;;28.12;48.23;99660.16;5106872;28;20475;-22
2021/08/26 09:12:40;;;;;;;20.15;18.05;;;;;;;27.91;50.15;99661.09;5107418;28;20020;-22
2021/08/26 09:15:12;;;;;;;21.10;17.88;;;;;;;27.65;49.60;99642.25;5107552;28;20032;-22
2021/08/26 09:17:37;;;;;;;19.35;17.33;;;;;;;27.79;50.56;99650.13;5089400;28;20103;-22
2021/08/26 09:20:10;;;;;;;18.67;16.75;;;;;;;28.35;46.51;99646.69;5106918;28;20124;-22
2021/08/26 09:22:35;;;;;;;18.02;16.02;;;;;;;28.14;47.13;99644.16;5107062;28;20031;-22
2021/08/26 09:25:01;;;;;;;18.77;16.77;;;;;;;28.29;45.51;99646.13;5106944;28;20024;-22
2021/08/26 09:27:36;;;;;;;18.35;16.15;;;;;;;28.49;46.56;99646.31;5107076;28;20024;-22
2021/08/26 09:30:14;;;;;;;16.80;15.05;;;;;;;28.75;46.66;99630.19;5106831;28;20031;-22
2021/08/26 09:32:43;;;;;;;16.85;15.05;;;;;;;29.20;43.84;99617.22;5107214;28;20055;-22
2021/08/26 09:35:19;;;;;;;17.33;15.52;;;;;;;28.34;45.52;99620.41;5106725;28;20035;-22
2021/08/26 09:37:50;;;;;;;17.33;15.63;;;;;;;28.79;44.95;99611.88;5108437;28;20038;-22
2021/08/26 09:40:17;;;;;;;17.00;14.70;;;;;;;28.54;46.01;99604.91;5110655;28;20480;-22
2021/08/26 09:42:42;;;;;;;17.42;14.68;;;;;;;28.56;44.65;99616.34;5110574;28;20092;-22
2021/08/26 09:45:26;;;;;;;15.48;12.93;;;;;;;28.63;44.54;99613.81;5110759;28;20039;-22
2021/08/26 09:48:08;;;;;;;14.13;12.73;;;;;;;28.40;45.54;99603.38;5111119;28;20495;-22
2021/08/26 09:50:46;;;;;;;16.45;12.50;;;;;;;28.19;43.09;99611.78;5110784;28;20046;-22
2021/08/26 09:53:16;;;;;;;13.55;11.38;;;;;;;28.64;43.13;99604.41;5110437;28;20039;-22
2021/08/26 09:55:50;;;;;;;17.90;12.35;;;;;;;28.65;43.29;99614.25;5110541;28;20023;-22
2021/08/26 09:58:17;;;;;;;13.60;12.02;;;;;;;29.01;43.64;99601.41;5110367;28;20103;-22
2021/08/26 10:00:43;;;;;;;15.02;12.93;;;;;;;29.08;43.26;99601.63;5110240;28;20138;-22
2021/08/26 10:03:13;;;;;;;14.95;12.63;;;;;;;28.64;43.55;99609.91;5110362;28;20464;-22
2021/08/26 10:05:42;;;;;;;13.27;11.65;;;;;;;28.26;43.26;99589.28;5110321;28;20494;-22
2021/08/26 10:08:07;;;;;;;14.38;12.88;;;;;;;28.62;43.14;99606.72;5110298;28;20024;-22
2021/08/26 10:10:33;;;;;;;16.02;12.85;;;;;;;28.37;43.85;99620.50;5110260;28;20031;-22
2021/08/26 10:13:01;;;;;;;19.08;12.20;;;;;;;28.39;43.42;99596.28;5092203;28;20031;-22
2021/08/26 10:15:27;;;;;;;13.50;11.90;;;;;;;28.18;44.69;99587.47;5110377;28;20490;-22
2021/08/26 10:17:53;;;;;;;19.33;12.93;;;;;;;28.20;44.85;99596.16;5110187;28;20164;-22
2021/08/26 10:20:22;;;;;;;14.13;12.68;;;;;;;28.25;45.43;99576.69;5091571;28;20039;-22
2021/08/26 10:22:48;;;;;;;15.93;13.80;;;;;;;27.90;45.95;99560.84;5091639;28;20040;-22
2021/08/26 10:25:14;;;;;;;14.27;12.77;;;;;;;27.91;45.83;99583.56;5091691;28;20100;-22
2021/08/26 10:27:39;;;;;;;16.00;13.60;;;;;;;28.14;45.91;99581.09;5091752;28;20483;-22
2021/08/26 10:30:05;;;;;;;17.42;13.30;;;;;;;27.99;44.66;99580.69;5091517;28;20035;-22
2021/08/26 10:32:31;;;;;;;14.32;12.68;;;;;;;28.19;45.09;99583.56;5109871;28;20026;-22
2021/08/26 10:35:13;;;;;;;15.00;13.40;;;;;;;28.21;44.62;99575.78;5110035;28;20032;-22
2021/08/26 10:37:54;;;;;;;14.00;12.55;;;;;;;28.55;44.43;99579.88;5109524;28;20081;-22
2021/08/26 10:40:27;;;;;;;14.38;12.85;;;;;;;28.83;42.41;99579.84;5109865;28;20029;-22
2021/08/26 10:42:53;;;;;;;14.63;12.75;;;;;;;28.89;41.45;99598.75;5109290;28;20281;-22
2021/08/26 10:45:35;;;;;;;14.45;12.55;;;;;;;28.63;43.10;99591.84;5109638;28;20098;-23
2021/08/26 10:48:01;;;;;;;14.13;12.25;;;;;;;28.63;43.11;99591.84;5109528;28;20114;-22
2021/08/26 10:50:35;;;;;;;14.35;12.15;;;;;;;28.43;42.96;99577.97;5108278;28;20479;-22
2021/08/26 10:53:07;;;;;;;14.68;13.18;;;;;;;28.34;44.18;99569.13;5109476;28;20031;-22
2021/08/26 10:55:46;;;;;;;16.27;13.65;;;;;;;28.00;46.06;99582.28;5109471;28;20031;-22
2021/08/26 10:58:21;;;;;;;22.20;13.55;;;;;;;27.63;46.31;99587.03;5109629;28;20189;-22
2021/08/26 11:00:47;;;;;;;14.65;12.68;;;;;;;27.65;45.83;99592.97;5109046;28;20537;-22
2021/08/26 11:06:16;;;;;;;16.20;12.68;;;;;;;26.17;50.47;99625.47;5080955;28;20411;-22
2021/08/26 11:08:44;;;;;;;16.77;12.50;;;;;;;25.97;51.39;99632.56;5109374;28;20131;-22
2021/08/26 11:11:28;;;;;;;15.75;12.10;;;;;;;25.59;54.96;99640.81;5091496;28;20074;-22
2021/08/26 11:14:23;;;;;;;17.35;12.98;;;;;;;25.56;56.09;99625.06;5109256;28;20039;-22
2021/08/26 11:16:50;;;;;;;15.30;12.93;;;;;;;24.90;57.89;99615.38;5108907;28;20038;-22
2021/08/26 11:19:15;;;;;;;17.92;13.50;;;;;;;24.31;59.71;99635.00;5108923;28;20680;-22
2021/08/26 11:21:40;;;;;;;21.77;15.45;;;;;;;24.34;60.96;99650.75;5109406;28;20035;-22
2021/08/26 11:24:12;;;;;;;14.30;12.75;;;;;;;23.53;60.77;99687.41;5108879;28;20024;-22